createdAt,value
2018-02-14T00:00:39.737Z,1004.90
2018-02-14T00:01:39.769Z,1004.89
2018-02-14T00:02:39.774Z,1004.93
2018-02-14T00:03:39.799Z,1004.96
2018-02-14T00:04:39.826Z,1004.95
2018-02-14T00:05:39.891Z,1004.94
2018-02-14T00:06:39.879Z,1004.91
2018-02-14T00:07:39.909Z,1004.96
2018-02-14T00:08:39.938Z,1005.00
2018-02-14T00:09:39.964Z,1004.99
2018-02-14T00:10:39.992Z,1004.98
2018-02-14T00:11:40.027Z,1004.99
2018-02-14T00:12:40.047Z,1005.01
2018-02-14T00:13:40.077Z,1004.94
2018-02-14T00:14:40.100Z,1004.98
2018-02-14T00:15:40.128Z,1005.03
2018-02-14T00:16:40.157Z,1004.98
2018-02-14T00:17:40.183Z,1004.99
2018-02-14T00:18:40.210Z,1004.96
2018-02-14T00:19:40.241Z,1005.03
2018-02-14T00:20:40.264Z,1005.03
2018-02-14T00:21:40.296Z,1005.04
2018-02-14T00:22:40.321Z,1005.00
2018-02-14T00:23:40.351Z,1005.05
2018-02-14T00:24:40.378Z,1004.97
2018-02-14T00:25:40.406Z,1004.95
2018-02-14T00:26:40.434Z,1004.95
2018-02-14T00:27:40.461Z,1005.01
2018-02-14T00:28:40.489Z,1005.00
2018-02-14T00:29:40.514Z,1004.99
2018-02-14T00:30:40.544Z,1005.03
2018-02-14T00:31:40.572Z,1005.09
2018-02-14T00:32:40.599Z,1005.08
2018-02-14T00:33:40.624Z,1005.08
2018-02-14T00:34:40.651Z,1005.06
2018-02-14T00:35:40.682Z,1005.07
2018-02-14T00:36:40.709Z,1005.12
2018-02-14T00:37:40.738Z,1005.11
2018-02-14T00:38:40.762Z,1005.05
2018-02-14T00:39:40.793Z,1005.03
2018-02-14T00:40:40.818Z,1005.03
2018-02-14T00:41:40.845Z,1004.97
2018-02-14T00:42:40.875Z,1005.01
2018-02-14T00:43:40.908Z,1005.08
2018-02-14T00:44:40.928Z,1005.15
2018-02-14T00:45:40.978Z,1005.21
2018-02-14T00:46:40.985Z,1005.25
2018-02-14T00:47:41.014Z,1005.26
2018-02-14T00:48:41.038Z,1005.25
2018-02-14T00:49:41.068Z,1005.24
2018-02-14T00:50:41.094Z,1005.24
2018-02-14T00:51:41.124Z,1005.30
2018-02-14T00:52:41.156Z,1005.27
2018-02-14T00:53:41.196Z,1005.27
2018-02-14T00:54:41.206Z,1005.31
2018-02-14T00:55:41.232Z,1005.31
2018-02-14T00:56:41.276Z,1005.32
2018-02-14T00:57:41.291Z,1005.35
2018-02-14T00:58:41.317Z,1005.37
2018-02-14T00:59:41.344Z,1005.33
2018-02-14T01:00:41.368Z,1005.36
2018-02-14T01:01:41.397Z,1005.36
2018-02-14T01:02:41.427Z,1005.35
2018-02-14T01:03:41.457Z,1005.36
2018-02-14T01:04:41.482Z,1005.36
2018-02-14T01:05:41.511Z,1005.35
2018-02-14T01:06:41.536Z,1005.39
2018-02-14T01:07:41.562Z,1005.39
2018-02-14T01:08:41.592Z,1005.42
2018-02-14T01:09:41.620Z,1005.38
2018-02-14T01:10:41.658Z,1005.37
2018-02-14T01:11:41.675Z,1005.37
2018-02-14T01:12:41.702Z,1005.40
2018-02-14T01:13:41.728Z,1005.42
2018-02-14T01:14:41.763Z,1005.41
2018-02-14T01:15:41.786Z,1005.44
2018-02-14T01:16:41.813Z,1005.38
2018-02-14T01:17:41.841Z,1005.44
2018-02-14T01:18:41.866Z,1005.41
2018-02-14T01:19:41.894Z,1005.40
2018-02-14T01:20:41.925Z,1005.39
2018-02-14T01:21:41.949Z,1005.43
2018-02-14T01:22:41.982Z,1005.42
2018-02-14T01:23:42.007Z,1005.43
2018-02-14T01:24:42.031Z,1005.43
2018-02-14T01:25:42.060Z,1005.50
2018-02-14T01:26:42.104Z,1005.50
2018-02-14T01:27:42.132Z,1005.49
2018-02-14T01:28:42.143Z,1005.51
2018-02-14T01:29:42.169Z,1005.56
2018-02-14T01:30:42.199Z,1005.54
2018-02-14T01:31:42.228Z,1005.51
2018-02-14T01:32:42.254Z,1005.54
2018-02-14T01:33:42.309Z,1005.55
2018-02-14T01:34:42.326Z,1005.54
2018-02-14T01:35:42.338Z,1005.52
2018-02-14T01:36:42.365Z,1005.52
2018-02-14T01:37:42.391Z,1005.51
2018-02-14T01:38:42.421Z,1005.57
2018-02-14T01:39:42.446Z,1005.54
2018-02-14T01:40:42.473Z,1005.53
2018-02-14T01:41:42.501Z,1005.56
2018-02-14T01:42:42.558Z,1005.56
2018-02-14T01:43:42.556Z,1005.55
2018-02-14T01:44:42.585Z,1005.55
2018-02-14T01:45:42.611Z,1005.52
2018-02-14T01:46:42.692Z,1005.52
2018-02-14T01:47:42.668Z,1005.53
2018-02-14T01:48:42.693Z,1005.55
2018-02-14T01:49:42.722Z,1005.55
2018-02-14T01:50:42.750Z,1005.55
2018-02-14T01:51:42.778Z,1005.54
2018-02-14T01:52:42.804Z,1005.55
2018-02-14T01:53:42.831Z,1005.60
2018-02-14T01:54:42.862Z,1005.62
2018-02-14T01:55:42.915Z,1005.66
2018-02-14T01:56:42.915Z,1005.66
2018-02-14T01:57:42.944Z,1005.65
2018-02-14T01:58:42.970Z,1005.62
2018-02-14T01:59:42.999Z,1005.64
2018-02-14T02:00:43.025Z,1005.68
2018-02-14T02:01:43.059Z,1005.70
2018-02-14T02:02:43.083Z,1005.67
2018-02-14T02:03:43.108Z,1005.70
2018-02-14T02:04:43.135Z,1005.74
2018-02-14T02:05:43.163Z,1005.77
2018-02-14T02:06:43.193Z,1005.78
2018-02-14T02:07:43.234Z,1005.77
2018-02-14T02:08:43.276Z,1005.80
2018-02-14T02:09:43.273Z,1005.78
2018-02-14T02:10:43.320Z,1005.78
2018-02-14T02:11:43.331Z,1005.76
2018-02-14T02:12:43.355Z,1005.79
2018-02-14T02:13:43.386Z,1005.78
2018-02-14T02:14:43.412Z,1005.80
2018-02-14T02:15:43.441Z,1005.82
2018-02-14T02:16:43.468Z,1005.81
2018-02-14T02:17:43.493Z,1005.80
2018-02-14T02:18:43.522Z,1005.80
2018-02-14T02:19:43.550Z,1005.79
2018-02-14T02:20:43.577Z,1005.79
2018-02-14T02:21:43.604Z,1005.78
2018-02-14T02:22:43.634Z,1005.82
2018-02-14T02:23:43.697Z,1005.78
2018-02-14T02:24:43.690Z,1005.78
2018-02-14T02:25:43.744Z,1005.82
2018-02-14T02:26:43.745Z,1005.84
2018-02-14T02:27:43.769Z,1005.84
2018-02-14T02:28:43.839Z,1005.85
2018-02-14T02:29:43.827Z,1005.85
2018-02-14T02:30:43.859Z,1005.88
2018-02-14T02:31:43.885Z,1005.91
2018-02-14T02:32:43.910Z,1005.92
2018-02-14T02:33:43.935Z,1005.88
2018-02-14T02:34:43.963Z,1005.92
2018-02-14T02:35:43.991Z,1005.95
2018-02-14T02:36:44.032Z,1005.95
2018-02-14T02:37:44.046Z,1005.94
2018-02-14T02:38:44.075Z,1005.95
2018-02-14T02:39:44.101Z,1005.97
2018-02-14T02:40:44.130Z,1006.03
2018-02-14T02:41:44.156Z,1006.03
2018-02-14T02:42:44.184Z,1006.08
2018-02-14T02:43:44.212Z,1006.06
2018-02-14T02:44:44.244Z,1006.07
2018-02-14T02:45:44.266Z,1006.18
2018-02-14T02:46:44.297Z,1006.12
2018-02-14T02:47:44.343Z,1006.15
2018-02-14T02:48:44.363Z,1006.09
2018-02-14T02:49:44.376Z,1006.15
2018-02-14T02:50:44.403Z,1006.16
2018-02-14T02:51:44.440Z,1006.15
2018-02-14T02:52:44.459Z,1006.14
2018-02-14T02:53:44.530Z,1006.14
2018-02-14T02:54:44.516Z,1006.17
2018-02-14T02:55:44.542Z,1006.15
2018-02-14T02:56:44.571Z,1006.19
2018-02-14T02:57:44.601Z,1006.16
2018-02-14T02:58:44.627Z,1006.15
2018-02-14T02:59:44.654Z,1006.19
2018-02-14T03:00:44.680Z,1006.17
2018-02-14T03:01:44.710Z,1006.16
2018-02-14T03:02:44.735Z,1006.20
2018-02-14T03:03:44.766Z,1006.22
2018-02-14T03:04:44.790Z,1006.19
2018-02-14T03:05:44.820Z,1006.24
2018-02-14T03:06:44.837Z,1006.26
2018-02-14T03:07:44.864Z,1006.28
2018-02-14T03:08:44.897Z,1006.29
2018-02-14T03:09:44.919Z,1006.34
2018-02-14T03:10:44.947Z,1006.32
2018-02-14T03:11:44.976Z,1006.32
2018-02-14T03:12:45.002Z,1006.35
2018-02-14T03:13:45.030Z,1006.35
2018-02-14T03:14:45.057Z,1006.38
2018-02-14T03:15:45.093Z,1006.41
2018-02-14T03:16:45.142Z,1006.38
2018-02-14T03:17:45.146Z,1006.33
2018-02-14T03:18:45.168Z,1006.34
2018-02-14T03:19:45.216Z,1006.32
2018-02-14T03:20:45.223Z,1006.33
2018-02-14T03:21:45.250Z,1006.33
2018-02-14T03:22:45.278Z,1006.32
2018-02-14T03:23:45.314Z,1006.39
2018-02-14T03:24:45.333Z,1006.37
2018-02-14T03:25:45.360Z,1006.36
2018-02-14T03:26:45.389Z,1006.37
2018-02-14T03:27:45.416Z,1006.36
2018-02-14T03:28:45.444Z,1006.40
2018-02-14T03:29:45.473Z,1006.49
2018-02-14T03:30:45.525Z,1006.46
2018-02-14T03:31:45.559Z,1006.46
2018-02-14T03:32:45.554Z,1006.47
2018-02-14T03:33:45.583Z,1006.48
2018-02-14T03:34:45.609Z,1006.51
2018-02-14T03:35:45.638Z,1006.52
2018-02-14T03:36:45.664Z,1006.54
2018-02-14T03:37:45.692Z,1006.51
2018-02-14T03:38:45.748Z,1006.53
2018-02-14T03:39:45.749Z,1006.49
2018-02-14T03:40:45.790Z,1006.47
2018-02-14T03:41:45.803Z,1006.49
2018-02-14T03:42:45.830Z,1006.50
2018-02-14T03:43:45.858Z,1006.49
2018-02-14T03:44:45.905Z,1006.54
2018-02-14T03:45:45.913Z,1006.53
2018-02-14T03:46:45.941Z,1006.56
2018-02-14T03:47:45.969Z,1006.50
2018-02-14T03:48:45.996Z,1006.52
2018-02-14T03:49:46.025Z,1006.49
2018-02-14T03:50:46.061Z,1006.55
2018-02-14T03:51:46.080Z,1006.56
2018-02-14T03:52:46.107Z,1006.55
2018-02-14T03:53:46.135Z,1006.54
2018-02-14T03:54:46.172Z,1006.59
2018-02-14T03:55:46.191Z,1006.57
2018-02-14T03:56:46.217Z,1006.59
2018-02-14T03:57:46.246Z,1006.55
2018-02-14T03:58:46.273Z,1006.59
2018-02-14T03:59:46.302Z,1006.62
2018-02-14T04:00:46.329Z,1006.61
2018-02-14T04:01:46.356Z,1006.61
2018-02-14T04:02:46.385Z,1006.65
2018-02-14T04:03:46.413Z,1006.60
2018-02-14T04:04:46.441Z,1006.61
2018-02-14T04:05:46.467Z,1006.59
2018-02-14T04:06:46.495Z,1006.60
2018-02-14T04:07:46.537Z,1006.63
2018-02-14T04:08:46.550Z,1006.67
2018-02-14T04:09:46.579Z,1006.65
2018-02-14T04:10:46.606Z,1006.66
2018-02-14T04:11:46.634Z,1006.62
2018-02-14T04:12:46.661Z,1006.62
2018-02-14T04:13:46.726Z,1006.68
2018-02-14T04:14:46.717Z,1006.68
2018-02-14T04:15:46.745Z,1006.68
2018-02-14T04:16:46.772Z,1006.68
2018-02-14T04:17:46.830Z,1006.71
2018-02-14T04:18:46.828Z,1006.72
2018-02-14T04:19:46.857Z,1006.72
2018-02-14T04:20:46.883Z,1006.71
2018-02-14T04:21:46.938Z,1006.74
2018-02-14T04:22:46.939Z,1006.72
2018-02-14T04:23:46.967Z,1006.71
2018-02-14T04:24:46.994Z,1006.72
2018-02-14T04:25:47.023Z,1006.72
2018-02-14T04:26:47.050Z,1006.71
2018-02-14T04:27:47.081Z,1006.76
2018-02-14T04:28:47.105Z,1006.77
2018-02-14T04:29:47.133Z,1006.75
2018-02-14T04:30:47.161Z,1006.74
2018-02-14T04:31:47.189Z,1006.79
2018-02-14T04:32:47.216Z,1006.78
2018-02-14T04:33:47.246Z,1006.75
2018-02-14T04:34:47.308Z,1006.79
2018-02-14T04:35:47.300Z,1006.78
2018-02-14T04:36:47.326Z,1006.81
2018-02-14T04:37:47.354Z,1006.82
2018-02-14T04:38:47.382Z,1006.83
2018-02-14T04:39:47.410Z,1006.85
2018-02-14T04:40:47.437Z,1006.86
2018-02-14T04:41:47.465Z,1006.88
2018-02-14T04:42:47.494Z,1006.86
2018-02-14T04:43:47.522Z,1006.86
2018-02-14T04:44:47.550Z,1006.81
2018-02-14T04:45:47.577Z,1006.85
2018-02-14T04:46:47.622Z,1006.84
2018-02-14T04:47:47.633Z,1006.86
2018-02-14T04:48:47.660Z,1006.91
2018-02-14T04:49:47.688Z,1006.96
2018-02-14T04:50:47.716Z,1006.93
2018-02-14T04:51:47.744Z,1006.92
2018-02-14T04:52:47.772Z,1006.95
2018-02-14T04:53:47.799Z,1006.92
2018-02-14T04:54:47.827Z,1006.92
2018-02-14T04:55:47.856Z,1006.93
2018-02-14T04:56:47.894Z,1006.95
2018-02-14T04:57:47.910Z,1006.94
2018-02-14T04:58:47.938Z,1006.94
2018-02-14T04:59:47.966Z,1006.93
2018-02-14T05:00:47.993Z,1006.97
2018-02-14T05:01:48.021Z,1006.91
2018-02-14T05:02:48.049Z,1006.96
2018-02-14T05:03:48.078Z,1006.94
2018-02-14T05:04:48.106Z,1006.94
2018-02-14T05:05:48.132Z,1006.97
2018-02-14T05:06:48.160Z,1006.95
2018-02-14T05:07:48.188Z,1006.99
2018-02-14T05:08:48.216Z,1006.99
2018-02-14T05:09:48.278Z,1006.99
2018-02-14T05:10:48.321Z,1006.99
2018-02-14T05:11:48.299Z,1007.00
2018-02-14T05:12:48.348Z,1006.98
2018-02-14T05:13:48.354Z,1007.02
2018-02-14T05:14:48.382Z,1007.00
2018-02-14T05:15:48.410Z,1006.98
2018-02-14T05:16:48.437Z,1007.02
2018-02-14T05:17:48.465Z,1007.02
2018-02-14T05:18:48.494Z,1007.04
2018-02-14T05:19:48.532Z,1007.07
2018-02-14T05:20:48.548Z,1007.04
2018-02-14T05:21:48.577Z,1007.05
2018-02-14T05:22:48.604Z,1007.05
2018-02-14T05:23:48.655Z,1007.04
2018-02-14T05:24:48.660Z,1007.01
2018-02-14T05:25:48.688Z,1007.05
2018-02-14T05:26:48.716Z,1007.02
2018-02-14T05:27:48.744Z,1007.07
2018-02-14T05:28:48.773Z,1007.06
2018-02-14T05:29:48.798Z,1007.05
2018-02-14T05:30:48.827Z,1007.07
2018-02-14T05:31:48.897Z,1007.15
2018-02-14T05:32:48.882Z,1007.14
2018-02-14T05:33:48.914Z,1007.18
2018-02-14T05:34:48.939Z,1007.17
2018-02-14T05:35:48.969Z,1007.18
2018-02-14T05:36:48.993Z,1007.22
2018-02-14T05:37:49.022Z,1007.24
2018-02-14T05:38:49.050Z,1007.29
2018-02-14T05:39:49.077Z,1007.26
2018-02-14T05:40:49.106Z,1007.31
2018-02-14T05:41:49.133Z,1007.32
2018-02-14T05:42:49.161Z,1007.35
2018-02-14T05:43:49.190Z,1007.43
2018-02-14T05:44:49.252Z,1007.37
2018-02-14T05:45:49.257Z,1007.36
2018-02-14T05:46:49.273Z,1007.44
2018-02-14T05:47:49.299Z,1007.40
2018-02-14T05:48:49.327Z,1007.42
2018-02-14T05:49:49.355Z,1007.42
2018-02-14T05:50:49.383Z,1007.42
2018-02-14T05:51:49.412Z,1007.44
2018-02-14T05:52:49.442Z,1007.45
2018-02-14T05:53:49.467Z,1007.46
2018-02-14T05:54:49.495Z,1007.50
2018-02-14T05:55:49.585Z,1007.47
2018-02-14T05:56:49.552Z,1007.53
2018-02-14T05:57:49.578Z,1007.49
2018-02-14T05:58:49.606Z,1007.52
2018-02-14T05:59:49.634Z,1007.51
2018-02-14T06:00:49.689Z,1007.57
2018-02-14T06:01:49.693Z,1007.54
2018-02-14T06:02:49.720Z,1007.54
2018-02-14T06:03:49.746Z,1007.60
2018-02-14T06:13:21.185Z,1007.59
2018-02-14T06:28:26.732Z,1007.67
2018-02-14T06:29:26.362Z,1007.71
2018-02-14T06:30:26.389Z,1007.70
2018-02-14T06:33:06.890Z,1007.69
2018-02-14T06:34:06.803Z,1007.75
2018-02-14T06:36:01.428Z,1007.82
2018-02-14T06:37:01.415Z,1007.81
2018-02-14T06:39:21.515Z,1007.80
2018-02-14T06:40:21.536Z,1007.85
2018-02-14T06:41:21.565Z,1007.86
2018-02-14T06:42:21.591Z,1007.84
2018-02-14T06:43:21.619Z,1007.86
2018-02-14T06:44:21.648Z,1007.87
2018-02-14T06:45:21.678Z,1007.87
2018-02-14T06:46:21.704Z,1007.87
2018-02-14T06:47:21.735Z,1007.89
2018-02-14T06:48:21.759Z,1007.88
2018-02-14T06:49:21.787Z,1007.91
2018-02-14T06:50:21.818Z,1007.91
2018-02-14T06:51:21.860Z,1007.88
2018-02-14T06:52:21.872Z,1007.91
2018-02-14T06:53:21.898Z,1007.93
2018-02-14T06:54:21.965Z,1007.90
2018-02-14T06:55:21.986Z,1007.91
2018-02-14T06:56:21.985Z,1007.99
2018-02-14T06:57:22.010Z,1007.98
2018-02-14T06:58:22.039Z,1007.99
2018-02-14T06:59:22.067Z,1008.01
2018-02-14T07:00:22.094Z,1007.99
2018-02-14T07:01:22.123Z,1007.98
2018-02-14T07:02:22.151Z,1007.96
2018-02-14T07:03:22.178Z,1008.00
2018-02-14T07:04:22.209Z,1008.03
2018-02-14T07:05:22.234Z,1008.07
2018-02-14T07:06:22.265Z,1008.12
2018-02-14T07:07:22.291Z,1008.05
2018-02-14T07:08:22.321Z,1008.09
2018-02-14T07:09:22.376Z,1008.10
2018-02-14T07:10:22.375Z,1008.10
2018-02-14T07:11:22.404Z,1008.09
2018-02-14T07:12:22.432Z,1008.09
2018-02-14T07:13:22.459Z,1008.13
2018-02-14T07:14:22.486Z,1008.12
2018-02-14T07:15:22.517Z,1008.13
2018-02-14T07:16:22.544Z,1008.15
2018-02-14T07:17:22.598Z,1008.23
2018-02-14T07:18:22.598Z,1008.12
2018-02-14T07:19:22.628Z,1008.14
2018-02-14T07:20:22.656Z,1008.14
2018-02-14T07:21:22.683Z,1008.14
2018-02-14T07:22:22.747Z,1008.18
2018-02-14T07:23:22.745Z,1008.21
2018-02-14T07:24:22.772Z,1008.21
2018-02-14T07:25:22.812Z,1008.16
2018-02-14T07:26:22.825Z,1008.18
2018-02-14T07:27:22.852Z,1008.18
2018-02-14T07:28:22.919Z,1008.21
2018-02-14T07:29:22.908Z,1008.26
2018-02-14T07:30:22.955Z,1008.25
2018-02-14T07:31:22.965Z,1008.25
2018-02-14T07:32:22.994Z,1008.24
2018-02-14T07:33:23.044Z,1008.30
2018-02-14T07:34:23.052Z,1008.28
2018-02-14T07:35:23.079Z,1008.28
2018-02-14T07:36:23.105Z,1008.34
2018-02-14T07:37:23.133Z,1008.33
2018-02-14T07:38:23.160Z,1008.38
2018-02-14T07:39:23.193Z,1008.39
2018-02-14T07:40:23.250Z,1008.38
2018-02-14T07:41:23.248Z,1008.38
2018-02-14T07:42:23.276Z,1008.46
2018-02-14T07:43:23.303Z,1008.43
2018-02-14T07:44:23.330Z,1008.42
2018-02-14T07:45:23.358Z,1008.37
2018-02-14T07:46:23.386Z,1008.45
2018-02-14T07:47:23.415Z,1008.49
2018-02-14T07:48:23.445Z,1008.50
2018-02-14T07:49:23.470Z,1008.52
2018-02-14T07:50:23.500Z,1008.48
2018-02-14T07:51:23.528Z,1008.56
2018-02-14T07:52:23.556Z,1008.58
2018-02-14T07:53:23.583Z,1008.58
2018-02-14T07:54:23.610Z,1008.59
2018-02-14T07:55:23.640Z,1008.67
2018-02-14T07:56:23.700Z,1008.60
2018-02-14T07:57:23.695Z,1008.65
2018-02-14T07:58:23.727Z,1008.67
2018-02-14T07:59:23.772Z,1008.69
2018-02-14T08:00:23.780Z,1008.70
2018-02-14T08:01:23.807Z,1008.67
2018-02-14T08:02:23.836Z,1008.71
2018-02-14T08:03:23.869Z,1008.73
2018-02-14T08:04:23.893Z,1008.74
2018-02-14T08:05:23.923Z,1008.74
2018-02-14T08:06:23.948Z,1008.75
2018-02-14T08:07:23.977Z,1008.73
2018-02-14T08:08:24.006Z,1008.77
2018-02-14T08:09:24.033Z,1008.71
2018-02-14T08:10:24.061Z,1008.73
2018-02-14T08:11:24.128Z,1008.77
2018-02-14T08:12:24.119Z,1008.77
2018-02-14T08:13:24.145Z,1008.78
2018-02-14T08:14:24.175Z,1008.78
2018-02-14T08:15:24.246Z,1008.89
2018-02-14T08:16:24.231Z,1008.81
2018-02-14T08:17:24.259Z,1008.85
2018-02-14T08:18:24.286Z,1008.80
2018-02-14T08:19:24.314Z,1008.85
2018-02-14T08:20:24.345Z,1008.83
2018-02-14T08:21:24.372Z,1008.84
2018-02-14T08:22:24.400Z,1008.88
2018-02-14T08:23:24.428Z,1008.92
2018-02-14T08:24:24.456Z,1008.96
2018-02-14T08:25:24.483Z,1008.94
2018-02-14T08:26:24.515Z,1008.93
2018-02-14T08:27:24.541Z,1008.96
2018-02-14T08:28:24.570Z,1009.00
2018-02-14T08:29:24.596Z,1009.00
2018-02-14T08:30:25.497Z,1008.98
2018-02-14T08:31:24.656Z,1009.00
2018-02-14T08:32:24.682Z,1008.97
2018-02-14T08:33:24.709Z,1009.00
2018-02-14T08:34:24.737Z,1009.04
2018-02-14T08:35:24.765Z,1009.04
2018-02-14T08:36:24.796Z,1009.00
2018-02-14T08:37:24.820Z,1009.01
2018-02-14T08:38:24.854Z,1009.04
2018-02-14T08:39:24.878Z,1009.07
2018-02-14T08:40:24.908Z,1009.10
2018-02-14T08:41:24.956Z,1009.10
2018-02-14T08:42:24.963Z,1009.06
2018-02-14T08:43:24.993Z,1009.07
2018-02-14T08:44:25.021Z,1009.10
2018-02-14T08:45:25.046Z,1009.15
2018-02-14T08:46:25.075Z,1009.11
2018-02-14T08:47:25.103Z,1009.10
2018-02-14T08:48:25.152Z,1009.09
2018-02-14T08:49:25.162Z,1009.16
2018-02-14T08:50:25.196Z,1009.13
2018-02-14T08:51:25.216Z,1009.17
2018-02-14T08:52:25.246Z,1009.20
2018-02-14T08:53:25.282Z,1009.20
2018-02-14T08:54:25.303Z,1009.16
2018-02-14T08:55:25.345Z,1009.18
2018-02-14T08:56:25.380Z,1009.16
2018-02-14T08:57:25.384Z,1009.17
2018-02-14T08:58:25.418Z,1009.17
2018-02-14T08:59:25.445Z,1009.15
2018-02-14T09:00:25.470Z,1009.15
2018-02-14T09:01:26.016Z,1009.16
2018-02-14T09:02:25.527Z,1009.14
2018-02-14T09:03:25.556Z,1009.14
2018-02-14T09:04:25.582Z,1009.17
2018-02-14T09:05:25.614Z,1009.15
2018-02-14T09:06:25.647Z,1009.15
2018-02-14T09:07:25.668Z,1009.16
2018-02-14T09:08:25.695Z,1009.17
2018-02-14T09:09:25.740Z,1009.18
2018-02-14T09:10:25.752Z,1009.20
2018-02-14T09:11:25.780Z,1009.20
2018-02-14T09:12:25.811Z,1009.18
2018-02-14T09:13:25.836Z,1009.18
2018-02-14T09:14:25.865Z,1009.15
2018-02-14T09:15:25.896Z,1009.22
2018-02-14T09:16:25.925Z,1009.22
2018-02-14T09:17:25.947Z,1009.21
2018-02-14T09:18:25.979Z,1009.19
2018-02-14T09:19:26.008Z,1009.21
2018-02-14T09:20:26.038Z,1009.24
2018-02-14T09:21:26.090Z,1009.22
2018-02-14T09:22:26.141Z,1009.26
2018-02-14T09:23:26.118Z,1009.27
2018-02-14T09:24:26.153Z,1009.26
2018-02-14T09:25:26.177Z,1009.31
2018-02-14T09:26:26.205Z,1009.29
2018-02-14T09:27:26.266Z,1009.38
2018-02-14T09:28:26.262Z,1009.41
2018-02-14T09:29:26.288Z,1009.41
2018-02-14T09:30:26.314Z,1009.42
2018-02-14T09:31:26.346Z,1009.43
2018-02-14T09:32:26.371Z,1009.46
2018-02-14T09:33:26.402Z,1009.45
2018-02-14T09:34:26.430Z,1009.50
2018-02-14T09:35:26.457Z,1009.46
2018-02-14T09:36:26.511Z,1009.44
2018-02-14T09:37:26.517Z,1009.46
2018-02-14T09:38:26.544Z,1009.51
2018-02-14T09:39:26.569Z,1009.47
2018-02-14T09:40:26.605Z,1009.51
2018-02-14T09:41:26.625Z,1009.48
2018-02-14T09:42:26.656Z,1009.55
2018-02-14T09:43:26.696Z,1009.55
2018-02-14T09:44:26.722Z,1009.48
2018-02-14T09:45:26.743Z,1009.54
2018-02-14T09:46:26.768Z,1009.49
2018-02-14T09:47:26.798Z,1009.51
2018-02-14T09:48:26.856Z,1009.52
2018-02-14T09:49:27.539Z,1009.50
2018-02-14T09:50:26.880Z,1009.50
2018-02-14T09:51:26.908Z,1009.47
2018-02-14T09:52:26.952Z,1009.49
2018-02-14T09:53:26.966Z,1009.50
2018-02-14T09:54:26.996Z,1009.56
2018-02-14T09:55:27.020Z,1009.55
2018-02-14T09:56:27.052Z,1009.55
2018-02-14T09:57:27.078Z,1009.54
2018-02-14T09:58:27.107Z,1009.54
2018-02-14T09:59:28.043Z,1009.54
2018-02-14T10:02:09.334Z,1009.55
2018-02-14T10:03:10.138Z,1009.58
2018-02-14T10:05:02.247Z,1009.62
2018-02-14T10:06:02.222Z,1009.56
2018-02-14T10:07:56.631Z,1009.57
2018-02-14T10:08:56.023Z,1009.59
2018-02-14T10:11:16.123Z,1009.67
2018-02-14T10:12:16.117Z,1009.57
2018-02-14T10:14:23.469Z,1009.68
2018-02-14T10:15:23.488Z,1009.62
2018-02-14T10:16:23.516Z,1009.62
2018-02-14T10:17:23.544Z,1009.69
2018-02-14T10:18:23.591Z,1009.66
2018-02-14T10:19:23.601Z,1009.68
2018-02-14T10:20:23.631Z,1009.67
2018-02-14T10:21:23.656Z,1009.70
2018-02-14T10:22:23.685Z,1009.68
2018-02-14T10:23:23.715Z,1009.72
2018-02-14T10:24:23.742Z,1009.71
2018-02-14T10:25:23.806Z,1009.69
2018-02-14T10:26:23.801Z,1009.63
2018-02-14T10:27:23.826Z,1009.69
2018-02-14T10:28:23.896Z,1009.69
2018-02-14T10:29:23.883Z,1009.71
2018-02-14T10:30:23.913Z,1009.72
2018-02-14T10:31:23.940Z,1009.74
2018-02-14T10:32:24.011Z,1009.75
2018-02-14T10:33:23.996Z,1009.74
2018-02-14T10:34:24.025Z,1009.74
2018-02-14T10:35:24.053Z,1009.78
2018-02-14T10:36:24.081Z,1009.74
2018-02-14T10:37:24.109Z,1009.78
2018-02-14T10:38:24.169Z,1009.80
2018-02-14T10:39:24.167Z,1009.82
2018-02-14T10:40:24.194Z,1009.83
2018-02-14T10:41:24.222Z,1009.86
2018-02-14T10:42:24.252Z,1009.87
2018-02-14T10:43:24.280Z,1009.88
2018-02-14T10:44:24.308Z,1009.88
2018-02-14T10:45:24.337Z,1009.91
2018-02-14T10:46:24.365Z,1009.89
2018-02-14T10:47:24.393Z,1009.94
2018-02-14T10:48:24.421Z,1009.98
2018-02-14T10:49:24.500Z,1009.96
2018-02-14T10:50:24.478Z,1010.00
2018-02-14T10:51:24.506Z,1009.97
2018-02-14T10:52:24.537Z,1010.01
2018-02-14T10:53:24.562Z,1010.02
2018-02-14T10:54:24.591Z,1010.02
2018-02-14T10:55:24.618Z,1010.01
2018-02-14T10:56:24.649Z,1010.02
2018-02-14T10:57:24.677Z,1010.03
2018-02-14T10:58:24.704Z,1010.06
2018-02-14T10:59:24.732Z,1010.07
2018-02-14T11:00:25.649Z,1010.08
2018-02-14T11:01:24.791Z,1010.04
2018-02-14T11:02:24.818Z,1010.02
2018-02-14T11:03:24.845Z,1010.11
2018-02-14T11:04:24.876Z,1010.09
2018-02-14T11:05:24.903Z,1010.04
2018-02-14T11:06:24.939Z,1010.03
2018-02-14T11:07:24.959Z,1010.08
2018-02-14T11:08:25.023Z,1010.09
2018-02-14T11:09:25.025Z,1010.10
2018-02-14T11:10:25.064Z,1010.10
2018-02-14T11:11:25.079Z,1010.05
2018-02-14T11:12:25.104Z,1010.08
2018-02-14T11:13:25.159Z,1010.11
2018-02-14T11:14:25.159Z,1010.06
2018-02-14T11:15:25.188Z,1010.04
2018-02-14T11:16:25.215Z,1010.10
2018-02-14T11:17:25.243Z,1010.07
2018-02-14T11:18:25.272Z,1010.06
2018-02-14T11:19:25.298Z,1010.08
2018-02-14T11:20:25.326Z,1010.08
2018-02-14T11:21:25.356Z,1010.06
2018-02-14T11:22:25.394Z,1010.06
2018-02-14T11:23:25.443Z,1010.01
2018-02-14T11:24:25.440Z,1010.05
2018-02-14T11:25:25.470Z,1010.06
2018-02-14T11:26:25.498Z,1010.05
2018-02-14T11:27:25.526Z,1010.06
2018-02-14T11:28:25.584Z,1010.01
2018-02-14T11:29:25.582Z,1010.07
2018-02-14T11:30:25.618Z,1010.00
2018-02-14T11:31:25.639Z,1010.03
2018-02-14T11:32:25.668Z,1010.02
2018-02-14T11:33:25.696Z,1009.99
2018-02-14T11:34:26.672Z,1010.02
2018-02-14T11:35:25.755Z,1010.08
2018-02-14T11:36:25.809Z,1010.07
2018-02-14T11:37:25.813Z,1010.01
2018-02-14T11:38:25.838Z,1010.05
2018-02-14T11:39:25.866Z,1010.02
2018-02-14T11:40:25.897Z,1010.04
2018-02-14T11:41:25.923Z,1010.02
2018-02-14T11:42:25.954Z,1010.07
2018-02-14T11:43:25.979Z,1010.08
2018-02-14T11:44:26.041Z,1010.05
2018-02-14T11:45:26.038Z,1010.05
2018-02-14T11:46:26.068Z,1010.04
2018-02-14T11:47:26.093Z,1010.09
2018-02-14T11:48:26.122Z,1010.10
2018-02-14T11:49:26.150Z,1010.09
2018-02-14T11:50:26.179Z,1010.10
2018-02-14T11:51:26.208Z,1010.13
2018-02-14T11:52:26.235Z,1010.15
2018-02-14T11:53:26.264Z,1010.12
2018-02-14T11:54:26.297Z,1010.08
2018-02-14T11:55:26.322Z,1010.12
2018-02-14T11:56:26.349Z,1010.13
2018-02-14T11:57:26.379Z,1010.12
2018-02-14T11:58:26.408Z,1010.15
2018-02-14T11:59:26.437Z,1010.10
2018-02-14T12:00:26.465Z,1010.03
2018-02-14T12:01:26.491Z,1010.12
2018-02-14T12:02:26.520Z,1010.05
2018-02-14T12:03:26.548Z,1010.10
2018-02-14T12:04:26.576Z,1010.09
2018-02-14T12:05:26.606Z,1010.12
2018-02-14T12:06:26.634Z,1010.09
2018-02-14T12:07:26.664Z,1010.08
2018-02-14T12:08:26.692Z,1010.10
2018-02-14T12:09:26.719Z,1010.07
2018-02-14T12:10:26.748Z,1010.13
2018-02-14T12:11:26.776Z,1010.02
2018-02-14T12:12:26.804Z,1010.11
2018-02-14T12:13:26.833Z,1010.11
2018-02-14T12:14:26.862Z,1010.15
2018-02-14T12:15:26.890Z,1010.14
2018-02-14T12:16:26.918Z,1010.09
2018-02-14T12:17:26.954Z,1010.17
2018-02-14T12:18:26.975Z,1010.18
2018-02-14T12:19:27.003Z,1010.18
2018-02-14T12:20:27.037Z,1010.14
2018-02-14T12:21:27.061Z,1010.15
2018-02-14T12:22:27.089Z,1010.14
2018-02-14T12:23:27.118Z,1010.21
2018-02-14T12:24:27.146Z,1010.20
2018-02-14T12:25:27.174Z,1010.21
2018-02-14T12:26:27.203Z,1010.20
2018-02-14T12:27:27.231Z,1010.21
2018-02-14T12:28:27.269Z,1010.24
2018-02-14T12:29:27.288Z,1010.24
2018-02-14T12:30:27.322Z,1010.25
2018-02-14T12:31:27.344Z,1010.26
2018-02-14T12:32:27.396Z,1010.25
2018-02-14T12:33:27.401Z,1010.27
2018-02-14T12:34:27.430Z,1010.25
2018-02-14T12:35:27.458Z,1010.25
2018-02-14T12:36:27.518Z,1010.25
2018-02-14T12:37:27.514Z,1010.25
2018-02-14T12:38:28.134Z,1010.29